createdAt,value
2023-08-15T00:01:06.685Z,26.24
2023-08-15T00:03:34.912Z,26.27
2023-08-15T00:06:02.443Z,26.30
2023-08-15T00:08:29.863Z,26.33
2023-08-15T00:10:57.312Z,26.24
2023-08-15T00:13:24.761Z,26.18
2023-08-15T00:15:52.215Z,26.28
2023-08-15T00:18:19.685Z,26.26
2023-08-15T05:31:48.253Z,23.41
2023-08-15T05:34:15.802Z,23.52
2023-08-15T05:43:42.944Z,23.88
2023-08-15T05:46:10.406Z,24.00
2023-08-15T05:48:38.446Z,24.03
2023-08-15T05:51:05.893Z,24.08
2023-08-15T05:53:33.321Z,24.27
2023-08-15T05:56:00.789Z,24.34
2023-08-15T05:58:28.226Z,24.41
2023-08-15T06:00:56.339Z,24.44
2023-08-15T06:03:40.618Z,24.57
2023-08-15T06:06:11.352Z,24.64
2023-08-15T06:08:38.774Z,24.66
2023-08-15T06:11:07.213Z,24.60
2023-08-15T06:13:34.638Z,24.59
2023-08-15T06:16:02.070Z,24.69
2023-08-15T06:18:29.520Z,24.65
2023-08-15T06:20:57.093Z,24.71
2023-08-15T06:23:24.572Z,24.79
2023-08-15T06:25:52.045Z,24.82
2023-08-15T06:28:21.765Z,24.90
2023-08-15T06:30:49.268Z,25.01
2023-08-15T06:33:16.742Z,24.92
2023-08-15T06:35:44.260Z,24.97
2023-08-15T06:38:11.832Z,24.98
2023-08-15T06:40:40.885Z,25.02
2023-08-15T06:43:08.316Z,25.02
2023-08-15T06:45:39.048Z,24.97
2023-08-15T06:48:07.427Z,24.97
2023-08-15T06:50:35.005Z,25.02
2023-08-15T06:53:02.516Z,25.03
2023-08-15T06:55:30.020Z,24.97
2023-08-15T06:57:58.108Z,25.04
2023-08-15T07:00:25.626Z,25.04
2023-08-15T07:02:53.123Z,25.16
2023-08-15T07:05:20.615Z,25.25
2023-08-15T07:07:48.231Z,25.44
2023-08-15T07:10:15.824Z,25.51
2023-08-15T07:12:45.010Z,25.43
2023-08-15T07:15:13.257Z,25.45
2023-08-15T07:17:41.694Z,25.40
2023-08-15T07:20:11.703Z,25.48
2023-08-15T07:22:39.745Z,25.48
2023-08-15T07:25:08.303Z,25.52
2023-08-15T07:27:35.992Z,25.50
2023-08-15T07:30:03.842Z,25.58
2023-08-15T07:32:31.332Z,25.60
2023-08-15T07:34:58.813Z,25.59
2023-08-15T07:37:26.345Z,25.59
2023-08-15T07:40:10.743Z,25.76
2023-08-15T07:42:38.631Z,25.82
2023-08-15T07:45:08.519Z,25.91
2023-08-15T07:47:37.597Z,26.04
2023-08-15T07:50:28.590Z,26.12
2023-08-15T07:53:01.044Z,26.16
2023-08-15T07:55:33.234Z,26.24
2023-08-15T07:58:01.242Z,26.39
2023-08-15T08:00:28.990Z,26.52
2023-08-15T08:02:56.636Z,26.51
2023-08-15T08:05:24.283Z,26.70
2023-08-15T08:07:52.579Z,26.81
2023-08-15T08:10:20.189Z,26.81
2023-08-15T08:12:48.081Z,26.85
2023-08-15T08:15:15.935Z,27.02
2023-08-15T08:17:43.788Z,27.20
2023-08-15T08:20:14.663Z,27.12
2023-08-15T08:22:42.209Z,27.08
2023-08-15T08:25:22.893Z,27.46
2023-08-15T08:27:51.763Z,27.55
2023-08-15T08:30:22.601Z,27.40
2023-08-15T08:32:52.289Z,27.78
2023-08-15T08:35:20.116Z,27.81
2023-08-15T08:37:48.877Z,27.70
2023-08-15T08:40:18.674Z,27.72
2023-08-15T08:42:47.011Z,27.79
2023-08-15T08:45:15.948Z,27.63
2023-08-15T08:47:44.981Z,27.72
2023-08-15T08:50:13.403Z,27.96
2023-08-15T08:52:46.584Z,28.02
2023-08-15T08:55:13.980Z,28.06
2023-08-15T08:57:44.298Z,28.11
2023-08-15T09:00:16.108Z,27.98
2023-08-15T09:02:44.496Z,28.10
2023-08-15T09:05:13.328Z,28.04
2023-08-15T09:07:43.399Z,28.11
2023-08-15T09:10:11.255Z,28.08
2023-08-15T09:12:41.434Z,27.96
2023-08-15T09:15:11.404Z,27.95
2023-08-15T09:17:44.017Z,27.90
2023-08-15T09:20:19.693Z,27.76
2023-08-15T09:22:49.194Z,28.02
2023-08-15T09:25:21.597Z,27.81
2023-08-15T09:27:49.144Z,27.96
2023-08-15T09:30:18.675Z,27.84
2023-08-15T09:32:48.271Z,27.89
2023-08-15T09:35:19.832Z,27.87
2023-08-15T09:37:51.232Z,27.85
2023-08-15T09:40:27.062Z,27.74
2023-08-15T09:42:55.704Z,27.74
2023-08-15T09:45:24.113Z,27.74
2023-08-15T09:47:51.893Z,27.87
2023-08-15T09:50:19.497Z,28.06
2023-08-15T09:52:52.597Z,28.11
2023-08-15T09:55:21.200Z,28.17
2023-08-15T09:57:48.739Z,28.05
2023-08-15T10:00:17.916Z,28.14
2023-08-15T10:03:08.815Z,28.17
2023-08-15T10:05:40.593Z,28.28
2023-08-15T10:08:10.888Z,28.28
2023-08-15T10:10:39.547Z,28.28
2023-08-15T10:13:09.462Z,28.39
2023-08-15T10:15:37.911Z,28.57
2023-08-15T10:18:06.563Z,28.33
2023-08-15T10:20:38.558Z,28.50
2023-08-15T10:23:10.773Z,28.62
2023-08-15T10:25:42.682Z,28.72
2023-08-15T10:28:13.679Z,28.74
2023-08-15T10:30:52.371Z,28.56
2023-08-15T10:33:32.867Z,29.14
2023-08-15T10:36:00.234Z,29.16
2023-08-15T10:38:36.589Z,28.90
2023-08-15T10:41:19.007Z,28.99
2023-08-15T10:43:57.013Z,29.21
2023-08-15T10:46:31.763Z,29.62
2023-08-15T10:49:12.340Z,29.37
2023-08-15T10:51:42.673Z,29.42
2023-08-15T10:54:16.146Z,29.44
2023-08-15T10:56:44.782Z,29.16
2023-08-15T10:59:18.772Z,29.02
2023-08-15T11:01:48.520Z,29.19
2023-08-15T11:04:18.860Z,29.28
2023-08-15T11:06:50.598Z,29.19
2023-08-15T11:09:18.804Z,29.34
2023-08-15T11:11:47.216Z,29.63
2023-08-15T11:14:21.321Z,29.82
2023-08-15T11:16:50.756Z,29.77
2023-08-15T11:19:20.976Z,29.88
2023-08-15T11:21:49.656Z,30.03
2023-08-15T11:24:17.586Z,29.83
2023-08-15T11:26:45.744Z,30.18
2023-08-15T11:29:14.518Z,30.74
2023-08-15T11:31:43.109Z,30.68
2023-08-15T11:34:12.897Z,30.81
2023-08-15T11:36:41.208Z,30.80
2023-08-15T11:39:14.212Z,30.94
2023-08-15T11:41:42.808Z,30.78
2023-08-15T11:44:10.285Z,30.56
2023-08-15T11:49:19.763Z,30.16
2023-08-15T11:51:47.231Z,30.57
2023-08-15T11:54:14.724Z,30.78
2023-08-15T11:56:54.433Z,30.98
2023-08-15T11:59:23.771Z,31.22
2023-08-15T12:01:51.562Z,31.49
2023-08-15T12:04:19.869Z,31.26
2023-08-15T12:06:47.520Z,31.23
2023-08-15T12:09:15.173Z,31.52
2023-08-15T12:11:42.671Z,31.42
2023-08-15T12:14:22.403Z,31.72
2023-08-15T12:16:49.957Z,31.96
2023-08-15T12:19:21.758Z,32.00
2023-08-15T12:21:52.420Z,32.28
2023-08-15T12:24:19.965Z,32.20
2023-08-15T12:26:47.436Z,32.30
2023-08-15T12:29:17.234Z,32.84
2023-08-15T12:31:45.871Z,32.94
2023-08-15T12:34:13.539Z,32.96
2023-08-15T12:36:41.022Z,33.32
2023-08-15T12:39:09.112Z,33.07
2023-08-15T12:41:37.444Z,33.11
2023-08-15T12:44:05.221Z,33.33
2023-08-15T12:46:32.693Z,32.97
2023-08-15T12:49:03.404Z,32.59
2023-08-15T12:51:32.596Z,32.68
2023-08-15T12:54:00.293Z,32.59
2023-08-15T12:56:27.806Z,32.19
2023-08-15T12:58:55.728Z,32.27
2023-08-15T13:01:24.159Z,32.20
2023-08-15T13:03:52.744Z,32.64
2023-08-15T13:06:20.414Z,32.69
2023-08-15T13:08:47.883Z,32.94
2023-08-15T13:11:16.861Z,32.90
2023-08-15T13:13:44.421Z,32.60
2023-08-15T13:16:12.756Z,32.33
2023-08-15T13:18:40.273Z,32.60
2023-08-15T13:21:08.715Z,32.63
2023-08-15T13:23:36.214Z,32.33
2023-08-15T13:26:04.781Z,32.60
2023-08-15T13:28:32.220Z,32.77
2023-08-15T13:30:59.697Z,32.85
2023-08-15T13:33:27.271Z,33.22
2023-08-15T13:35:54.879Z,33.35
2023-08-15T13:38:22.334Z,33.60
2023-08-15T13:40:50.371Z,33.85
2023-08-15T13:43:17.852Z,33.80
2023-08-15T13:45:45.369Z,33.63
2023-08-15T13:48:12.903Z,33.18
2023-08-15T13:50:40.400Z,32.91
2023-08-15T13:53:07.869Z,32.90
2023-08-15T13:55:35.447Z,33.09
2023-08-15T13:58:03.387Z,33.28
2023-08-15T14:00:33.636Z,32.96
2023-08-15T14:03:01.329Z,32.66
2023-08-15T14:05:28.888Z,32.67
2023-08-15T14:07:56.437Z,32.60
2023-08-15T14:10:24.209Z,32.61
2023-08-15T14:12:51.670Z,32.56
2023-08-15T14:15:19.520Z,32.04
2023-08-15T14:17:47.013Z,31.84
2023-08-15T14:20:14.504Z,31.99
2023-08-15T14:22:42.005Z,32.14
2023-08-15T14:25:10.063Z,32.49
2023-08-15T14:27:37.566Z,32.77
2023-08-15T14:30:05.761Z,33.11
2023-08-15T14:32:33.445Z,32.82
2023-08-15T14:35:00.980Z,32.63
2023-08-15T14:37:29.229Z,32.53
2023-08-15T14:39:56.704Z,32.58
2023-08-15T14:42:24.627Z,32.78
2023-08-15T14:44:52.520Z,32.47
2023-08-15T14:47:33.791Z,32.59
2023-08-15T14:50:04.073Z,32.75
2023-08-15T14:52:32.119Z,32.59
2023-08-15T14:54:59.726Z,32.56
2023-08-15T14:57:27.266Z,32.98
2023-08-15T14:59:54.928Z,33.03
2023-08-15T15:02:25.002Z,33.14
2023-08-15T15:04:53.304Z,33.44
2023-08-15T15:07:20.753Z,33.52
2023-08-15T15:09:48.240Z,33.71
2023-08-15T15:12:15.697Z,33.72
2023-08-15T15:14:43.275Z,33.83
2023-08-15T15:17:10.740Z,33.90
2023-08-15T15:19:38.205Z,33.42
2023-08-15T15:22:07.592Z,33.20
2023-08-15T15:24:35.042Z,33.36
2023-08-15T15:27:03.667Z,33.16
2023-08-15T15:29:31.121Z,33.55
2023-08-15T15:31:58.648Z,33.77
2023-08-15T15:34:26.246Z,33.70
2023-08-15T15:36:53.690Z,33.33
2023-08-15T15:39:21.185Z,33.66
2023-08-15T15:41:48.700Z,33.89
2023-08-15T15:44:16.160Z,33.38
2023-08-15T15:46:54.323Z,33.76
2023-08-15T15:49:23.793Z,33.48
2023-08-15T15:51:52.330Z,33.47
2023-08-15T15:54:20.026Z,33.45
2023-08-15T15:56:47.651Z,33.22
2023-08-15T15:59:15.171Z,33.13
2023-08-15T16:01:42.884Z,33.38
2023-08-15T16:04:10.632Z,33.31
2023-08-15T16:06:38.243Z,33.28
2023-08-15T16:09:06.057Z,33.26
2023-08-15T16:11:33.831Z,33.40
2023-08-15T16:14:02.160Z,33.06
2023-08-15T16:16:29.757Z,32.63
2023-08-15T16:18:57.242Z,32.63
2023-08-15T16:21:24.757Z,32.79
2023-08-15T16:23:52.161Z,32.86
2023-08-15T16:26:19.675Z,32.83
2023-08-15T16:28:47.344Z,32.91
2023-08-15T16:31:14.859Z,33.03
2023-08-15T16:33:42.472Z,32.99
2023-08-15T16:36:10.227Z,32.73
2023-08-15T16:38:37.651Z,32.69
2023-08-15T16:41:05.305Z,32.55
2023-08-15T16:43:32.807Z,32.60
2023-08-15T16:46:00.388Z,32.66
2023-08-15T16:48:28.569Z,32.56
2023-08-15T16:50:56.092Z,32.43
2023-08-15T16:53:23.535Z,32.31
2023-08-15T16:55:51.036Z,32.10
2023-08-15T16:58:18.690Z,32.10
2023-08-15T17:00:46.240Z,32.11
2023-08-15T17:03:13.898Z,32.22
2023-08-15T17:05:41.457Z,31.73
2023-08-15T17:08:08.984Z,31.82
2023-08-15T17:10:36.429Z,31.63
2023-08-15T17:13:04.403Z,31.64
2023-08-15T17:15:33.673Z,31.75
2023-08-15T17:18:01.883Z,31.56
2023-08-15T17:20:29.414Z,31.51
2023-08-15T17:22:56.843Z,31.43
2023-08-15T17:25:24.294Z,31.41
2023-08-15T17:27:52.753Z,31.25
2023-08-15T17:30:20.659Z,31.14
2023-08-15T17:32:48.362Z,31.05
2023-08-15T17:35:15.833Z,30.82
2023-08-15T17:37:43.318Z,30.63
2023-08-15T17:40:11.632Z,30.65
2023-08-15T17:42:39.804Z,30.77
2023-08-15T17:45:08.358Z,30.67
2023-08-15T17:47:36.147Z,30.56
2023-08-15T17:50:03.725Z,30.39
2023-08-15T17:52:31.213Z,30.55
2023-08-15T17:54:58.715Z,30.35
2023-08-15T17:57:26.208Z,30.32
2023-08-15T17:59:53.616Z,30.65
2023-08-15T18:02:21.391Z,30.51
2023-08-15T18:04:49.153Z,30.28
2023-08-15T18:07:16.585Z,30.38
2023-08-15T18:09:44.940Z,30.09
2023-08-15T18:12:12.532Z,30.24
2023-08-15T18:14:42.190Z,30.32
2023-08-15T18:17:10.274Z,30.21
2023-08-15T18:19:39.261Z,30.19
2023-08-15T18:22:08.530Z,30.09
2023-08-15T18:24:36.642Z,30.22
2023-08-15T18:27:04.316Z,30.18
2023-08-15T18:29:31.913Z,29.98
2023-08-15T18:31:59.460Z,29.80
2023-08-15T18:34:26.989Z,29.80
2023-08-15T18:36:54.487Z,29.74
2023-08-15T18:39:22.385Z,29.60
2023-08-15T18:41:49.887Z,29.58
2023-08-15T18:44:17.470Z,29.56
2023-08-15T18:46:47.725Z,29.58
2023-08-15T18:49:15.431Z,29.51
2023-08-15T18:51:42.882Z,29.46
2023-08-15T18:54:10.345Z,29.44
2023-08-15T18:56:37.803Z,29.35
2023-08-15T18:59:05.354Z,29.36
2023-08-15T19:01:32.887Z,29.21
2023-08-15T19:04:00.426Z,29.19
2023-08-15T19:06:27.993Z,29.13
2023-08-15T19:08:55.515Z,29.21
2023-08-15T19:11:23.071Z,29.15
2023-08-15T19:13:50.473Z,29.06
2023-08-15T19:16:17.930Z,28.94
2023-08-15T19:18:45.431Z,28.83
2023-08-15T19:21:14.288Z,28.77
2023-08-15T19:23:41.770Z,28.86
2023-08-15T19:26:09.205Z,28.87
2023-08-15T19:28:37.065Z,28.72
2023-08-15T19:31:13.038Z,28.62
2023-08-15T19:33:40.522Z,28.67
2023-08-15T19:36:08.158Z,28.60
2023-08-15T19:38:35.595Z,28.58
2023-08-15T19:41:03.078Z,28.46
2023-08-15T19:43:30.501Z,28.52
2023-08-15T19:45:57.939Z,28.56
2023-08-15T19:48:25.439Z,28.42
2023-08-15T19:50:53.005Z,28.46
2023-08-15T19:53:20.494Z,28.52
2023-08-15T19:55:47.948Z,28.28
2023-08-15T19:58:15.956Z,28.47
2023-08-15T20:00:45.013Z,28.40
2023-08-15T20:03:12.534Z,28.29
2023-08-15T20:05:40.003Z,28.21
2023-08-15T20:08:07.540Z,28.20
2023-08-15T20:10:35.038Z,27.95
2023-08-15T20:13:02.488Z,27.84
2023-08-15T20:15:29.902Z,27.79
2023-08-15T20:17:57.354Z,27.84
2023-08-15T20:20:24.831Z,27.75
2023-08-15T20:22:52.346Z,27.72
2023-08-15T20:25:19.769Z,27.83
2023-08-15T20:27:47.214Z,27.79
2023-08-15T20:30:15.573Z,27.80
2023-08-15T20:32:43.030Z,27.82
2023-08-15T20:35:11.025Z,27.56
2023-08-15T20:37:39.189Z,27.41
2023-08-15T20:40:08.361Z,27.24
2023-08-15T20:42:36.803Z,27.07
2023-08-15T20:45:05.809Z,26.97
2023-08-15T20:47:33.572Z,27.30
2023-08-15T20:50:01.122Z,27.22
2023-08-15T20:52:28.727Z,27.01
2023-08-15T20:54:56.241Z,26.98
2023-08-15T20:57:23.802Z,27.07
2023-08-15T20:59:51.845Z,27.24
2023-08-15T21:02:19.507Z,27.13
2023-08-15T21:04:46.957Z,27.04
2023-08-15T21:07:14.477Z,27.05
2023-08-15T21:09:42.002Z,27.22
2023-08-15T21:12:09.659Z,26.98
2023-08-15T21:14:37.115Z,27.15
2023-08-15T21:17:04.573Z,27.01
2023-08-15T21:19:32.006Z,26.95
2023-08-15T21:21:59.474Z,27.01
2023-08-15T21:24:26.915Z,26.93
2023-08-15T21:26:54.445Z,26.84
2023-08-15T21:29:22.000Z,26.80
2023-08-15T21:31:50.825Z,26.81
2023-08-15T21:34:18.590Z,26.85
2023-08-15T21:36:46.104Z,26.81
2023-08-15T21:39:13.871Z,26.93
2023-08-15T21:41:41.291Z,26.68
2023-08-15T21:44:09.075Z,26.50
2023-08-15T21:46:36.701Z,26.65
2023-08-15T21:49:04.431Z,26.79
2023-08-15T21:51:31.893Z,26.70
2023-08-15T21:53:59.398Z,26.67
2023-08-15T21:56:30.356Z,26.62
2023-08-15T21:58:58.906Z,26.48
2023-08-15T22:01:26.557Z,26.51
2023-08-15T22:03:54.139Z,26.47
2023-08-15T22:06:21.947Z,26.41
2023-08-15T22:08:49.440Z,26.25
2023-08-15T22:11:16.860Z,26.35
2023-08-15T22:13:44.302Z,26.28
2023-08-15T22:16:11.825Z,26.21
2023-08-15T22:18:39.517Z,26.08
2023-08-15T22:21:07.011Z,26.15
2023-08-15T22:23:34.690Z,26.17
2023-08-15T22:26:02.273Z,26.11
2023-08-15T22:28:29.745Z,26.02
2023-08-15T22:30:57.233Z,25.99
2023-08-15T22:33:24.750Z,25.99
2023-08-15T22:35:52.249Z,25.90
2023-08-15T22:38:19.657Z,25.88
2023-08-15T22:40:47.151Z,25.94
2023-08-15T22:43:14.628Z,25.94
2023-08-15T22:45:46.107Z,25.87
2023-08-15T22:48:13.633Z,25.82
2023-08-15T22:50:41.352Z,25.94
2023-08-15T22:53:09.802Z,25.98
2023-08-15T22:55:37.327Z,25.65
2023-08-15T22:58:05.064Z,25.52
2023-08-15T23:00:32.517Z,25.59
2023-08-15T23:02:59.960Z,25.58
2023-08-15T23:05:27.428Z,25.54
2023-08-15T23:07:54.882Z,25.63
2023-08-15T23:10:22.344Z,25.63
2023-08-15T23:12:49.819Z,25.62
2023-08-15T23:15:17.415Z,25.61
2023-08-15T23:17:44.850Z,25.56
2023-08-15T23:20:13.191Z,25.50
2023-08-15T23:22:40.661Z,25.51
2023-08-15T23:25:09.788Z,25.40
2023-08-15T23:27:37.757Z,25.35
2023-08-15T23:30:07.371Z,25.52
2023-08-15T23:32:35.375Z,25.33
2023-08-15T23:35:02.848Z,25.24
2023-08-15T23:37:30.293Z,25.33
2023-08-15T23:39:58.262Z,25.23
2023-08-15T23:42:25.718Z,25.12
2023-08-15T23:44:53.240Z,25.02
2023-08-15T23:47:21.035Z,25.04
2023-08-15T23:49:49.230Z,25.10
2023-08-15T23:52:16.784Z,25.12
2023-08-15T23:54:44.236Z,24.90
2023-08-15T23:57:12.191Z,25.05
2023-08-15T23:59:39.624Z,25.00
